createdAt,value
2023-03-13T00:01:41.680Z,74.04
2023-03-13T00:07:05.326Z,74.06
2023-03-13T00:12:27.709Z,74.13
2023-03-13T00:17:49.946Z,74.21
2023-03-13T00:23:12.394Z,74.24
2023-03-13T00:28:35.753Z,74.25
2023-03-13T00:34:01.865Z,74.20
2023-03-13T00:39:25.316Z,74.28
2023-03-13T00:44:48.073Z,74.50
2023-03-13T00:50:10.452Z,74.81
2023-03-13T00:55:32.840Z,75.07
2023-03-13T01:00:55.044Z,75.29
2023-03-13T01:06:22.331Z,75.55
2023-03-13T01:11:48.250Z,75.88
2023-03-13T01:17:10.741Z,76.26
2023-03-13T01:22:33.144Z,76.69
2023-03-13T01:27:55.601Z,77.35
2023-03-13T01:33:18.328Z,78.11
2023-03-13T01:38:41.095Z,79.16
2023-03-13T01:44:04.393Z,80.22
2023-03-13T01:49:41.997Z,81.21
2023-03-13T01:55:16.718Z,82.13
2023-03-13T02:00:43.043Z,83.00
2023-03-13T02:06:08.394Z,83.84
2023-03-13T02:11:54.893Z,84.12
2023-03-13T02:17:18.196Z,85.30
2023-03-13T02:22:57.307Z,86.29
2023-03-13T02:28:24.052Z,87.43
2023-03-13T02:33:49.989Z,88.79
2023-03-13T02:39:18.562Z,90.21
2023-03-13T02:44:44.815Z,91.51
2023-03-13T02:50:07.074Z,92.71
2023-03-13T02:55:45.857Z,93.83
2023-03-13T03:01:08.660Z,94.85
2023-03-13T03:06:31.685Z,95.88
2023-03-13T03:11:54.276Z,96.77
2023-03-13T03:17:16.941Z,97.76
2023-03-13T03:22:40.929Z,98.59
2023-03-13T03:28:03.175Z,99.50
2023-03-13T03:33:25.367Z,100.00
2023-03-13T03:38:48.320Z,100.00
2023-03-13T03:44:11.488Z,100.00
2023-03-13T03:49:34.036Z,100.00
2023-03-13T03:54:56.682Z,100.00
2023-03-13T04:00:22.568Z,100.00
2023-03-13T04:05:45.088Z,100.00
2023-03-13T04:11:07.435Z,100.00
2023-03-13T04:16:30.548Z,100.00
2023-03-13T04:21:52.841Z,100.00
2023-03-13T04:27:15.084Z,100.00
2023-03-13T04:32:37.464Z,100.00
2023-03-13T04:38:01.498Z,100.00
2023-03-13T04:43:24.354Z,100.00
2023-03-13T04:48:47.331Z,100.00
2023-03-13T04:54:09.677Z,100.00
2023-03-13T04:59:33.008Z,100.00
2023-03-13T05:04:55.450Z,100.00
2023-03-13T05:10:18.077Z,100.00
2023-03-13T05:15:40.375Z,100.00
2023-03-13T05:21:02.764Z,100.00
2023-03-13T05:26:25.007Z,100.00
2023-03-13T05:31:47.472Z,100.00
2023-03-13T05:37:09.897Z,100.00
2023-03-13T05:42:32.172Z,100.00
2023-03-13T05:47:55.812Z,100.00
2023-03-13T05:53:18.019Z,100.00
2023-03-13T05:58:40.410Z,100.00
2023-03-13T06:04:02.894Z,100.00
2023-03-13T06:09:25.476Z,100.00
2023-03-13T06:14:48.109Z,100.00
2023-03-13T06:20:10.681Z,100.00
2023-03-13T06:25:33.543Z,100.00
2023-03-13T06:30:56.656Z,100.00
2023-03-13T06:36:20.157Z,100.00
2023-03-13T06:41:43.027Z,100.00
2023-03-13T06:47:05.433Z,100.00
2023-03-13T06:52:41.426Z,100.00
2023-03-13T06:57:55.233Z,100.00
2023-03-13T07:03:19.048Z,100.00
2023-03-13T07:08:42.186Z,100.00
2023-03-13T07:14:16.417Z,100.00
2023-03-13T07:19:30.837Z,100.00
2023-03-13T07:24:53.912Z,100.00
2023-03-13T07:30:18.039Z,100.00
2023-03-13T07:35:41.265Z,100.00
2023-03-13T07:41:10.402Z,100.00
2023-03-13T07:46:34.966Z,100.00
2023-03-13T07:51:58.068Z,100.00
2023-03-13T07:57:21.684Z,100.00
2023-03-13T08:02:43.964Z,100.00
2023-03-13T08:08:06.981Z,100.00
2023-03-13T08:13:30.106Z,100.00
2023-03-13T08:19:07.094Z,100.00
2023-03-13T08:24:30.578Z,100.00
2023-03-13T08:29:53.496Z,95.95
2023-03-13T08:35:16.834Z,92.65
2023-03-13T08:40:40.091Z,90.56
2023-03-13T08:46:04.526Z,89.32
2023-03-13T08:51:34.333Z,88.53
2023-03-13T08:56:50.687Z,88.90
2023-03-13T09:02:14.836Z,89.89
2023-03-13T09:07:37.556Z,91.11
2023-03-13T09:12:59.758Z,92.54
2023-03-13T09:18:22.137Z,93.74
2023-03-13T09:23:45.173Z,95.14
2023-03-13T09:29:08.067Z,96.31
2023-03-13T09:34:32.176Z,97.45
2023-03-13T09:39:57.613Z,98.58
2023-03-13T09:45:34.856Z,99.51
2023-03-13T09:51:17.511Z,100.00
2023-03-13T09:56:53.508Z,100.00
2023-03-13T10:02:24.854Z,100.00
2023-03-13T10:07:58.717Z,100.00
2023-03-13T10:13:28.410Z,100.00
2023-03-13T10:18:52.092Z,100.00
2023-03-13T10:24:30.515Z,100.00
2023-03-13T10:30:02.807Z,99.74
2023-03-13T10:35:28.837Z,98.81
2023-03-13T10:40:54.126Z,97.77
2023-03-13T10:46:17.366Z,96.68
2023-03-13T10:51:48.459Z,95.71
2023-03-13T10:57:26.914Z,95.12
2023-03-13T11:02:53.906Z,94.48
2023-03-13T11:08:35.485Z,93.73
2023-03-13T11:13:59.817Z,93.23
2023-03-13T11:19:48.332Z,93.50
2023-03-13T11:25:24.843Z,93.92
2023-03-13T11:31:17.980Z,94.87
2023-03-13T11:37:15.178Z,96.41
2023-03-13T11:42:54.112Z,97.27
2023-03-13T11:48:41.147Z,98.11
2023-03-13T11:54:45.276Z,98.92
2023-03-13T12:00:29.266Z,98.96
2023-03-13T12:06:21.846Z,99.64
2023-03-13T12:11:58.685Z,100.00
2023-03-13T12:17:49.214Z,100.00
2023-03-13T12:23:42.753Z,100.00
2023-03-13T12:29:40.932Z,100.00
2023-03-13T12:35:38.367Z,100.00
2023-03-13T12:41:22.257Z,100.00
2023-03-13T12:47:17.723Z,100.00
2023-03-13T12:53:00.236Z,100.00
2023-03-13T12:58:56.241Z,100.00
2023-03-13T13:04:31.064Z,100.00
2023-03-13T13:10:07.096Z,100.00
2023-03-13T13:15:53.989Z,100.00
2023-03-13T13:21:31.486Z,100.00
2023-03-13T13:27:02.091Z,100.00
2023-03-13T13:32:29.271Z,100.00
2023-03-13T13:37:53.199Z,100.00
2023-03-13T13:43:20.123Z,100.00
2023-03-13T13:48:57.480Z,100.00
2023-03-13T13:54:53.864Z,100.00
2023-03-13T14:00:32.227Z,100.00
2023-03-13T14:05:58.353Z,100.00
2023-03-13T14:11:34.537Z,100.00
2023-03-13T14:17:02.992Z,100.00
2023-03-13T14:22:27.283Z,100.00
2023-03-13T14:27:51.652Z,100.00
2023-03-13T14:33:14.470Z,100.00
2023-03-13T14:38:41.856Z,100.00
2023-03-13T14:44:08.938Z,100.00
2023-03-13T14:49:37.296Z,100.00
2023-03-13T14:55:16.671Z,100.00
2023-03-13T15:00:54.833Z,100.00
2023-03-13T15:06:36.226Z,100.00
2023-03-13T15:12:12.088Z,100.00
2023-03-13T15:17:44.669Z,100.00
2023-03-13T15:23:06.992Z,100.00
2023-03-13T15:28:32.904Z,100.00
2023-03-13T15:33:57.742Z,100.00
2023-03-13T15:39:30.759Z,100.00
2023-03-13T15:44:52.961Z,100.00
2023-03-13T15:50:27.153Z,100.00
2023-03-13T15:55:49.693Z,100.00
2023-03-13T16:01:12.730Z,100.00
2023-03-13T16:06:38.958Z,100.00
2023-03-13T16:12:01.402Z,100.00
2023-03-13T16:17:32.509Z,100.00
2023-03-13T16:22:55.052Z,100.00
2023-03-13T16:28:19.257Z,100.00
2023-03-13T16:33:41.487Z,100.00
2023-03-13T16:39:05.942Z,100.00
2023-03-13T16:44:28.215Z,100.00
2023-03-13T16:49:51.081Z,100.00
2023-03-13T16:55:13.912Z,100.00
2023-03-13T17:00:40.058Z,100.00
2023-03-13T17:06:03.135Z,100.00
2023-03-13T17:11:27.655Z,100.00
2023-03-13T17:16:53.660Z,100.00
2023-03-13T17:22:18.097Z,100.00
2023-03-13T17:27:40.263Z,99.86
2023-03-13T17:33:03.271Z,99.32
2023-03-13T17:38:25.773Z,98.72
2023-03-13T17:43:49.028Z,98.02
2023-03-13T17:49:13.340Z,96.92
2023-03-13T17:54:35.848Z,96.10
2023-03-13T17:59:58.605Z,95.12
2023-03-13T18:05:21.121Z,94.30
2023-03-13T18:10:45.164Z,93.53
2023-03-13T18:16:07.462Z,92.56
2023-03-13T18:21:30.264Z,91.59
2023-03-13T18:26:55.763Z,90.61
2023-03-13T18:32:21.720Z,89.84
2023-03-13T18:37:46.280Z,89.17
2023-03-13T18:43:08.890Z,88.75
2023-03-13T18:48:31.216Z,88.32
2023-03-13T18:53:53.612Z,87.56
2023-03-13T18:59:21.184Z,86.64
2023-03-13T19:04:43.733Z,86.71
2023-03-13T19:10:08.880Z,87.30
2023-03-13T19:15:33.562Z,88.18
2023-03-13T19:20:56.268Z,88.16
2023-03-13T19:26:23.265Z,87.76
2023-03-13T19:31:45.841Z,87.94
2023-03-13T19:37:09.061Z,88.29
2023-03-13T19:42:31.271Z,88.84
2023-03-13T19:47:54.689Z,89.15
2023-03-13T19:53:17.158Z,89.48
2023-03-13T19:58:39.805Z,89.70
2023-03-13T20:04:02.407Z,89.88
2023-03-13T20:09:27.888Z,90.42
2023-03-13T20:14:50.809Z,90.73
2023-03-13T20:20:14.537Z,90.25
2023-03-13T20:25:37.077Z,89.54
2023-03-13T20:31:01.037Z,89.13
2023-03-13T20:36:30.408Z,89.04
2023-03-13T20:41:54.564Z,88.79
2023-03-13T20:47:17.181Z,88.41
2023-03-13T20:52:39.525Z,88.18
2023-03-13T20:58:01.769Z,87.27
2023-03-13T21:03:24.033Z,86.62
2023-03-13T21:08:46.887Z,85.89
2023-03-13T21:14:09.579Z,84.64
2023-03-13T21:19:32.227Z,84.03
2023-03-13T21:25:11.812Z,84.36
2023-03-13T21:30:35.576Z,83.64
2023-03-13T21:35:58.793Z,83.70
2023-03-13T21:41:25.400Z,83.87
2023-03-13T21:46:49.381Z,83.62
2023-03-13T21:52:11.753Z,82.93
2023-03-13T21:57:34.843Z,81.14
2023-03-13T22:02:57.597Z,79.60
2023-03-13T22:08:19.952Z,79.14
2023-03-13T22:13:42.409Z,79.12
2023-03-13T22:19:06.386Z,79.13
2023-03-13T22:24:29.129Z,79.56
2023-03-13T22:29:52.174Z,80.22
2023-03-13T22:35:14.965Z,80.63
2023-03-13T22:40:38.262Z,80.95
2023-03-13T22:46:00.930Z,80.65
2023-03-13T22:51:27.839Z,80.77
2023-03-13T22:56:50.230Z,81.04
2023-03-13T23:02:12.451Z,80.55
2023-03-13T23:07:37.147Z,80.38
2023-03-13T23:12:59.377Z,79.58
2023-03-13T23:18:21.574Z,78.52
2023-03-13T23:23:43.866Z,78.18
2023-03-13T23:29:06.861Z,78.83
2023-03-13T23:34:29.178Z,79.03
2023-03-13T23:39:51.884Z,79.32
2023-03-13T23:45:14.364Z,79.48
2023-03-13T23:50:36.871Z,79.89
2023-03-13T23:56:05.040Z,80.39
